Time;durP1;ratioP1;P1;durP2;ratioP2;P2;SDS_P1;SDS_P2;PMS_P1;PMS_P2;Temp;Humidity;BMP_temperature;BMP_pressure;BME280_temperature;BME280_humidity;BME280_pressure;Samples;Min_cycle;Max_cycle;Signal;HPM_P1;HPM_P2
2023/08/15 00:00:19;;;;;;;12.15;8.98;;;18.00;99.90;;;;;;5077029;28;20052;-61
2023/08/15 00:02:44;;;;;;;14.18;9.20;;;18.00;99.90;;;;;;5076898;28;20047;-61
2023/08/15 00:05:10;;;;;;;11.35;7.55;;;18.00;99.90;;;;;;5076040;28;20036;-62
2023/08/15 00:07:36;;;;;;;13.32;8.05;;;18.00;99.90;;;;;;5076790;28;20040;-62
2023/08/15 00:10:02;;;;;;;14.82;8.95;;;18.00;99.90;;;;;;5095184;28;20408;-62
2023/08/15 00:12:27;;;;;;;13.48;9.10;;;18.00;99.90;;;;;;5093598;28;20119;-61
2023/08/15 00:14:53;;;;;;;12.20;9.75;;;18.00;99.90;;;;;;5094971;28;20043;-62
2023/08/15 00:17:19;;;;;;;11.57;8.63;;;18.00;99.90;;;;;;5076567;28;20040;-62
2023/08/15 00:19:44;;;;;;;14.00;9.60;;;18.00;99.90;;;;;;5075823;28;20040;-61
2023/08/15 00:22:10;;;;;;;14.48;8.60;;;18.00;99.90;;;;;;5076509;28;20439;-62
2023/08/15 00:24:36;;;;;;;13.38;8.73;;;18.00;99.90;;;;;;5094526;28;20075;-62
2023/08/15 00:27:01;;;;;;;11.77;9.30;;;17.90;99.90;;;;;;5075803;28;20048;-62
2023/08/15 00:29:27;;;;;;;11.40;8.75;;;17.90;99.90;;;;;;5076349;28;20047;-62
2023/08/15 00:31:52;;;;;;;12.45;9.13;;;18.00;99.90;;;;;;5060063;28;20060;-62
2023/08/15 00:34:18;;;;;;;11.15;9.73;;;17.90;99.90;;;;;;5075365;28;20076;-62
2023/08/15 00:36:44;;;;;;;11.90;8.50;;;18.00;99.90;;;;;;5093748;28;20040;-62
2023/08/15 00:39:09;;;;;;;12.85;9.00;;;17.90;99.90;;;;;;5076328;28;20040;-61
2023/08/15 00:41:36;;;;;;;10.85;7.80;;;17.90;99.90;;;;;;5075152;28;20032;-61
2023/08/15 00:44:02;;;;;;;12.98;9.10;;;18.00;99.90;;;;;;5094334;28;20040;-62
2023/08/15 00:46:29;;;;;;;11.35;8.18;;;17.90;99.90;;;;;;5093886;28;20043;-62
2023/08/15 00:48:55;;;;;;;11.45;8.20;;;17.90;99.90;;;;;;5072040;28;20413;-61
2023/08/15 00:51:21;;;;;;;12.20;8.27;;;18.00;99.90;;;;;;5073882;28;20405;-62
2023/08/15 00:53:47;;;;;;;10.93;8.10;;;17.90;99.90;;;;;;5072106;28;20044;-62
2023/08/15 00:56:14;;;;;;;11.70;9.07;;;17.90;99.90;;;;;;5073585;28;20049;-63
2023/08/15 00:58:41;;;;;;;10.50;8.60;;;18.00;99.90;;;;;;5072455;28;20044;-62
2023/08/15 01:01:15;;;;;;;10.63;8.65;;;17.90;99.90;;;;;;5071583;28;20044;-61
2023/08/15 01:03:41;;;;;;;13.95;8.93;;;17.90;99.90;;;;;;5056043;28;20037;-62
2023/08/15 01:06:06;;;;;;;11.93;8.77;;;17.90;99.90;;;;;;5072385;28;20124;-62
2023/08/15 01:08:33;;;;;;;10.82;9.07;;;17.90;99.90;;;;;;5072510;28;20104;-61
2023/08/15 01:11:00;;;;;;;10.82;8.70;;;17.90;99.90;;;;;;5073642;28;20032;-62
2023/08/15 01:13:35;;;;;;;11.07;8.45;;;17.90;99.90;;;;;;5072139;28;20071;-62
2023/08/15 01:16:05;;;;;;;10.10;7.80;;;17.90;99.90;;;;;;5072480;28;20482;-62
2023/08/15 01:18:35;;;;;;;10.23;8.52;;;17.80;99.90;;;;;;5055468;28;20043;-62
2023/08/15 01:21:02;;;;;;;11.05;8.38;;;17.80;99.90;;;;;;5071985;28;20115;-61
2023/08/15 01:23:43;;;;;;;13.90;8.88;;;17.80;99.90;;;;;;5071168;28;20075;-61
2023/08/15 01:26:09;;;;;;;13.60;9.20;;;17.80;99.90;;;;;;5073426;28;20400;-61
2023/08/15 01:28:35;;;;;;;12.27;8.40;;;17.70;99.90;;;;;;5072007;28;20033;-61
2023/08/15 01:31:18;;;;;;;12.45;9.00;;;17.70;99.90;;;;;;5054623;28;20041;-61
2023/08/15 01:33:48;;;;;;;11.85;8.80;;;17.70;99.90;;;;;;5071932;28;20048;-62
2023/08/15 01:36:32;;;;;;;16.27;10.70;;;17.70;99.90;;;;;;5070737;28;20040;-62
2023/08/15 01:39:03;;;;;;;14.07;9.43;;;17.80;99.90;;;;;;5071710;28;20032;-61
2023/08/15 01:41:34;;;;;;;12.13;9.98;;;17.70;99.90;;;;;;5071302;28;20493;-62
2023/08/15 01:44:00;;;;;;;13.55;9.20;;;17.70;99.90;;;;;;5071171;28;20044;-62
2023/08/15 01:46:26;;;;;;;13.90;9.70;;;17.80;99.90;;;;;;5072574;28;20119;-62
2023/08/15 01:48:52;;;;;;;15.35;9.80;;;17.80;99.90;;;;;;5054597;28;20136;-62
2023/08/15 01:51:17;;;;;;;14.98;9.05;;;17.80;99.90;;;;;;5070628;28;20523;-62
2023/08/15 01:53:43;;;;;;;13.32;10.27;;;17.90;99.90;;;;;;5072741;28;20032;-61
2023/08/15 01:56:09;;;;;;;13.00;9.45;;;17.90;99.90;;;;;;5071029;28;20135;-62
2023/08/15 01:58:35;;;;;;;15.68;11.05;;;17.90;99.90;;;;;;5070028;28;20116;-62
2023/08/15 02:01:04;;;;;;;19.30;9.73;;;17.90;99.90;;;;;;5072710;28;20123;-62
2023/08/15 02:03:30;;;;;;;13.40;9.38;;;17.90;99.90;;;;;;5070632;28;20078;-62
2023/08/15 02:05:55;;;;;;;13.05;8.77;;;17.90;99.90;;;;;;5070494;28;20036;-62
2023/08/15 02:08:22;;;;;;;14.30;9.45;;;17.90;99.90;;;;;;5070995;28;20043;-62
2023/08/15 02:10:49;;;;;;;13.75;8.13;;;17.90;99.90;;;;;;5071048;28;20497;-62
2023/08/15 02:13:15;;;;;;;14.40;8.77;;;18.00;99.90;;;;;;5070236;28;20079;-61
2023/08/15 02:15:40;;;;;;;11.85;8.23;;;17.90;99.90;;;;;;5054572;28;20485;-62
2023/08/15 02:18:06;;;;;;;13.00;9.07;;;17.90;99.90;;;;;;5070265;28;20082;-62
2023/08/15 02:20:32;;;;;;;10.05;7.43;;;17.90;99.90;;;;;;5070913;28;20040;-62
2023/08/15 02:22:57;;;;;;;13.88;7.68;;;17.90;99.90;;;;;;5071411;28;20044;-62
2023/08/15 02:25:23;;;;;;;13.38;8.75;;;17.90;99.90;;;;;;5069991;28;20047;-62
2023/08/15 02:27:49;;;;;;;11.90;7.60;;;17.90;99.90;;;;;;5072135;28;20049;-62
2023/08/15 02:30:15;;;;;;;12.23;8.65;;;17.80;99.90;;;;;;5070976;28;20044;-62
2023/08/15 02:32:40;;;;;;;12.88;7.78;;;17.80;99.90;;;;;;5071251;28;20481;-61
2023/08/15 02:35:06;;;;;;;11.57;7.85;;;17.80;99.90;;;;;;5070873;28;20486;-62
2023/08/15 02:37:32;;;;;;;14.60;8.10;;;17.70;99.90;;;;;;5071942;28;20047;-62
2023/08/15 02:39:58;;;;;;;14.70;8.43;;;17.70;99.90;;;;;;5070360;28;20036;-62
2023/08/15 02:42:23;;;;;;;11.43;9.13;;;17.60;99.90;;;;;;5070918;28;20048;-61
2023/08/15 02:44:49;;;;;;;12.93;8.25;;;17.60;99.90;;;;;;5070480;28;20481;-62
2023/08/15 02:47:15;;;;;;;13.52;8.90;;;17.60;99.90;;;;;;5053419;28;20048;-62
2023/08/15 02:49:40;;;;;;;10.38;8.15;;;17.70;99.90;;;;;;5070628;28;20519;-61
2023/08/15 02:52:06;;;;;;;13.60;9.13;;;17.70;99.90;;;;;;5054315;28;20131;-61
2023/08/15 02:54:32;;;;;;;9.95;7.78;;;17.70;99.90;;;;;;5071124;28;20036;-61
2023/08/15 02:56:57;;;;;;;13.15;8.75;;;17.60;99.90;;;;;;5071960;28;20044;-62
2023/08/15 02:59:23;;;;;;;10.05;7.90;;;17.60;99.90;;;;;;5070427;28;20032;-62
2023/08/15 03:01:49;;;;;;;15.77;8.23;;;17.60;99.90;;;;;;5069515;28;20239;-62
2023/08/15 03:04:14;;;;;;;12.25;7.57;;;17.60;99.90;;;;;;5070655;28;20390;-62
2023/08/15 03:06:42;;;;;;;11.10;8.30;;;17.60;99.90;;;;;;5070465;28;20048;-62
2023/08/15 03:09:08;;;;;;;13.88;9.25;;;17.60;99.90;;;;;;5069654;28;20052;-61
2023/08/15 03:11:33;;;;;;;13.50;8.10;;;17.60;99.90;;;;;;5073322;28;20063;-61
2023/08/15 03:13:59;;;;;;;17.58;9.35;;;17.60;99.90;;;;;;5075808;28;20045;-62
2023/08/15 03:16:27;;;;;;;12.00;9.05;;;17.60;99.90;;;;;;5073556;28;20148;-61
2023/08/15 03:18:53;;;;;;;15.82;9.23;;;17.60;99.90;;;;;;5074581;28;20076;-62
2023/08/15 03:21:19;;;;;;;12.90;9.00;;;17.60;99.90;;;;;;5074350;28;20231;-62
2023/08/15 03:23:44;;;;;;;11.60;8.57;;;17.70;99.90;;;;;;5073659;28;20048;-61
2023/08/15 03:26:10;;;;;;;12.00;8.27;;;17.70;99.90;;;;;;5074429;28;20037;-61
2023/08/15 03:28:36;;;;;;;13.95;8.45;;;17.70;99.90;;;;;;5074520;28;20477;-60
2023/08/15 03:31:08;;;;;;;14.20;9.50;;;17.70;99.90;;;;;;5075518;28;20044;-61
2023/08/15 03:33:35;;;;;;;15.13;8.93;;;17.70;99.90;;;;;;5075311;28;20032;-61
2023/08/15 03:36:01;;;;;;;12.18;9.05;;;17.70;99.90;;;;;;5073564;28;20481;-61
2023/08/15 03:38:27;;;;;;;14.45;8.50;;;17.80;99.90;;;;;;5075151;28;20041;-61
2023/08/15 03:41:03;;;;;;;13.02;8.70;;;17.80;99.90;;;;;;5074011;28;20042;-61
2023/08/15 03:43:33;;;;;;;13.25;8.45;;;17.80;99.90;;;;;;5074191;28;20044;-61
2023/08/15 03:46:00;;;;;;;15.52;8.98;;;17.80;99.90;;;;;;5073913;28;20044;-60
2023/08/15 03:48:26;;;;;;;14.85;8.35;;;17.80;99.90;;;;;;5073709;28;20064;-60
2023/08/15 03:50:56;;;;;;;13.13;9.48;;;17.90;99.90;;;;;;5074313;28;20040;-60
2023/08/15 03:53:22;;;;;;;11.32;7.95;;;17.90;99.90;;;;;;5073475;28;20043;-62
2023/08/15 03:55:51;;;;;;;14.55;8.88;;;17.90;99.90;;;;;;5073713;28;20115;-62
2023/08/15 03:58:18;;;;;;;11.43;7.57;;;17.90;99.90;;;;;;5072601;28;20040;-62
2023/08/15 04:00:45;;;;;;;14.45;8.52;;;17.90;99.90;;;;;;5073502;28;20047;-62
2023/08/15 04:03:10;;;;;;;13.82;9.35;;;17.90;99.90;;;;;;5075066;28;20394;-61
2023/08/15 04:05:36;;;;;;;11.90;8.50;;;17.90;99.90;;;;;;5072663;28;20037;-62
2023/08/15 04:08:05;;;;;;;13.13;7.95;;;17.90;99.90;;;;;;5073734;28;20040;-62
2023/08/15 04:10:30;;;;;;;12.68;8.85;;;17.90;99.90;;;;;;5073189;28;20049;-62
2023/08/15 04:12:56;;;;;;;14.23;8.48;;;17.90;99.90;;;;;;5073050;28;20041;-62
2023/08/15 04:15:22;;;;;;;12.23;9.00;;;17.90;99.90;;;;;;5074326;28;20120;-62
2023/08/15 04:17:48;;;;;;;10.57;8.05;;;17.90;99.90;;;;;;5072362;28;20084;-61
2023/08/15 04:20:13;;;;;;;11.38;8.70;;;17.90;99.90;;;;;;5073255;28;20040;-62
2023/08/15 04:22:39;;;;;;;14.13;10.15;;;17.80;99.90;;;;;;5072517;28;20447;-62
2023/08/15 04:25:09;;;;;;;13.90;8.30;;;17.80;99.90;;;;;;5071761;28;20040;-61
2023/08/15 04:27:38;;;;;;;18.85;9.82;;;17.80;99.90;;;;;;5072997;28;20086;-61
2023/08/15 04:30:05;;;;;;;14.00;8.75;;;17.80;99.90;;;;;;5063778;28;20033;-62
2023/08/15 04:32:30;;;;;;;17.67;8.57;;;17.70;99.90;;;;;;5060602;28;20040;-61
2023/08/15 04:34:57;;;;;;;11.20;8.00;;;17.70;99.90;;;;;;5060231;28;20037;-62
2023/08/15 04:37:22;;;;;;;13.88;8.02;;;17.70;99.90;;;;;;5053396;28;20045;-62
2023/08/15 04:39:48;;;;;;;12.93;8.77;;;17.60;99.90;;;;;;5055468;28;20043;-62
2023/08/15 04:42:14;;;;;;;10.85;6.90;;;17.60;99.90;;;;;;5072956;28;20036;-62
2023/08/15 04:44:39;;;;;;;12.13;7.80;;;17.60;99.90;;;;;;5072948;28;20119;-62
2023/08/15 04:47:05;;;;;;;13.82;7.30;;;17.50;99.90;;;;;;5072381;28;20541;-62
2023/08/15 04:49:31;;;;;;;10.88;7.85;;;17.50;99.90;;;;;;5087024;28;20084;-62
2023/08/15 04:51:56;;;;;;;11.43;7.75;;;17.40;99.90;;;;;;5094246;28;20459;-62
2023/08/15 04:54:22;;;;;;;11.27;7.40;;;17.40;99.90;;;;;;5075221;28;20044;-62
2023/08/15 04:56:49;;;;;;;12.85;7.90;;;17.40;99.90;;;;;;5059113;28;20412;-62
2023/08/15 04:59:15;;;;;;;11.07;7.57;;;17.40;99.90;;;;;;5093976;28;20040;-62
2023/08/15 05:01:41;;;;;;;12.27;7.88;;;17.40;99.90;;;;;;5074751;28;20028;-61
2023/08/15 05:04:06;;;;;;;10.60;8.23;;;17.30;99.90;;;;;;5075688;28;20473;-62
2023/08/15 05:06:32;;;;;;;10.45;6.90;;;17.30;99.90;;;;;;5093753;28;20044;-62
2023/08/15 05:08:57;;;;;;;10.85;6.38;;;17.30;99.90;;;;;;5075241;28;20040;-61
2023/08/15 05:11:23;;;;;;;11.15;7.63;;;17.30;99.90;;;;;;5058841;28;20048;-62
2023/08/15 05:13:49;;;;;;;12.05;8.23;;;17.30;99.90;;;;;;5075575;28;20508;-62
2023/08/15 05:16:14;;;;;;;13.00;9.10;;;17.30;99.90;;;;;;5074672;28;20044;-61
2023/08/15 05:18:40;;;;;;;13.50;8.32;;;17.30;99.90;;;;;;5075496;28;20047;-62
2023/08/15 05:21:06;;;;;;;12.95;9.65;;;17.30;99.90;;;;;;5058217;28;20088;-61
2023/08/15 05:23:31;;;;;;;12.52;8.93;;;17.30;99.90;;;;;;5093566;28;20036;-61
2023/08/15 05:25:57;;;;;;;11.80;8.70;;;17.30;99.90;;;;;;5093722;28;20035;-62
2023/08/15 05:28:22;;;;;;;12.57;7.95;;;17.30;99.90;;;;;;5092668;28;20040;-61
2023/08/15 05:30:48;;;;;;;12.60;8.63;;;17.20;99.90;;;;;;5075179;28;20549;-62
2023/08/15 05:33:14;;;;;;;12.93;8.20;;;17.20;99.90;;;;;;5092385;28;20044;-61
2023/08/15 05:35:39;;;;;;;11.05;8.15;;;17.30;99.90;;;;;;5074366;28;20122;-62
2023/08/15 05:38:05;;;;;;;15.63;7.85;;;17.30;99.90;;;;;;5075001;28;20086;-62
2023/08/15 05:40:32;;;;;;;12.50;7.28;;;17.30;99.90;;;;;;5092816;28;20064;-62
2023/08/15 05:42:58;;;;;;;14.13;7.38;;;17.20;99.90;;;;;;5074463;28;20066;-62
2023/08/15 05:45:24;;;;;;;12.45;7.40;;;17.30;99.90;;;;;;5074932;28;20044;-61
2023/08/15 05:47:50;;;;;;;11.82;6.97;;;17.30;99.90;;;;;;5074864;28;20101;-61
2023/08/15 05:50:16;;;;;;;10.63;6.50;;;17.20;99.90;;;;;;5092013;28;20129;-61
2023/08/15 05:52:42;;;;;;;12.32;7.47;;;17.30;99.90;;;;;;5074591;28;20473;-62
2023/08/15 05:55:08;;;;;;;14.23;6.60;;;17.30;99.90;;;;;;5057998;28;20404;-63
2023/08/15 05:57:33;;;;;;;17.58;6.65;;;17.30;99.90;;;;;;5074055;28;20071;-62
2023/08/15 05:59:59;;;;;;;11.10;6.70;;;17.40;99.90;;;;;;5075131;28;20523;-62
2023/08/15 06:02:25;;;;;;;14.43;6.03;;;17.40;99.90;;;;;;5092834;28;20478;-62
2023/08/15 06:04:51;;;;;;;13.80;5.38;;;17.60;99.90;;;;;;5073639;28;20611;-62
2023/08/15 06:07:16;;;;;;;10.90;5.47;;;17.70;99.90;;;;;;5092786;28;20051;-61
2023/08/15 06:09:43;;;;;;;13.27;5.88;;;17.90;99.90;;;;;;5073977;28;20051;-62
2023/08/15 06:12:09;;;;;;;10.23;5.00;;;18.00;99.90;;;;;;5073753;28;20088;-62
2023/08/15 06:14:38;;;;;;;12.57;5.97;;;18.20;99.90;;;;;;5074312;28;20044;-62
2023/08/15 06:17:05;;;;;;;16.90;6.10;;;18.40;99.90;;;;;;5074720;28;20489;-61
2023/08/15 06:19:30;;;;;;;12.55;4.93;;;18.50;99.90;;;;;;5073435;28;20044;-62
2023/08/15 06:21:56;;;;;;;11.02;5.55;;;18.60;99.90;;;;;;5092837;28;20043;-62
2023/08/15 06:24:22;;;;;;;18.08;5.85;;;18.70;99.90;;;;;;5091421;28;20120;-61
2023/08/15 06:26:47;;;;;;;10.05;5.22;;;18.80;99.90;;;;;;5092349;28;20036;-62
2023/08/15 06:29:13;;;;;;;10.75;5.18;;;18.90;99.90;;;;;;5074455;28;20047;-62
2023/08/15 06:31:38;;;;;;;14.05;5.25;;;19.00;99.90;;;;;;5091497;28;20044;-61
2023/08/15 06:34:04;;;;;;;12.82;6.25;;;19.00;99.90;;;;;;5092356;28;20040;-62
2023/08/15 06:36:31;;;;;;;10.43;5.43;;;19.10;99.90;;;;;;5091712;28;20401;-62
2023/08/15 06:38:56;;;;;;;9.90;5.15;;;19.10;99.90;;;;;;5091755;28;20032;-62
2023/08/15 06:41:22;;;;;;;9.43;4.75;;;19.20;99.90;;;;;;5074039;28;20042;-62
2023/08/15 06:43:48;;;;;;;12.32;5.65;;;19.30;99.90;;;;;;5073740;28;20032;-62
2023/08/15 06:46:16;;;;;;;12.93;6.15;;;19.40;99.90;;;;;;5090990;28;20029;-61
2023/08/15 06:48:42;;;;;;;9.57;4.45;;;19.40;99.90;;;;;;5092045;28;20059;-62
2023/08/15 06:51:07;;;;;;;8.43;4.45;;;19.50;99.90;;;;;;5073907;28;20048;-62
2023/08/15 06:53:33;;;;;;;15.02;6.50;;;19.60;99.90;;;;;;5073351;28;20040;-62
2023/08/15 06:55:59;;;;;;;12.50;5.88;;;19.60;99.90;;;;;;5074200;28;20040;-62
2023/08/15 06:58:25;;;;;;;12.07;5.68;;;19.70;99.90;;;;;;5091822;28;20104;-61
2023/08/15 07:00:51;;;;;;;10.68;5.03;;;19.80;99.90;;;;;;5091114;28;20036;-61
2023/08/15 07:03:18;;;;;;;12.70;4.93;;;19.80;99.90;;;;;;5091616;28;20055;-62
2023/08/15 07:05:44;;;;;;;13.07;5.15;;;19.90;99.90;;;;;;5074045;28;20032;-61
2023/08/15 07:08:12;;;;;;;10.10;4.45;;;19.90;99.90;;;;;;5072946;28;20077;-62
2023/08/15 07:10:39;;;;;;;9.95;5.43;;;20.10;99.90;;;;;;5073703;28;20044;-62
2023/08/15 07:13:04;;;;;;;12.00;4.75;;;20.10;99.90;;;;;;5092168;28;20127;-62
2023/08/15 07:15:31;;;;;;;11.80;4.57;;;20.20;99.90;;;;;;5072645;28;20123;-62
2023/08/15 07:17:57;;;;;;;10.63;4.45;;;20.20;99.90;;;;;;5073606;28;20040;-62
2023/08/15 07:20:23;;;;;;;11.00;4.55;;;20.30;99.90;;;;;;5073814;28;20043;-62
2023/08/15 07:22:49;;;;;;;10.60;4.32;;;20.40;99.90;;;;;;5073022;28;20597;-62
2023/08/15 07:25:15;;;;;;;10.07;4.47;;;20.40;99.90;;;;;;5073467;28;20032;-62
2023/08/15 07:27:41;;;;;;;9.43;3.55;;;20.50;99.90;;;;;;5056144;28;20044;-62
2023/08/15 07:30:07;;;;;;;11.13;4.03;;;20.50;99.90;;;;;;5091523;28;20032;-62
2023/08/15 07:32:36;;;;;;;8.35;3.38;;;20.70;99.90;;;;;;5091824;28;20039;-62
2023/08/15 07:35:03;;;;;;;12.73;4.55;;;20.80;99.90;;;;;;5072766;28;20123;-62
2023/08/15 07:37:30;;;;;;;10.90;3.08;;;21.00;99.90;;;;;;5090763;28;20509;-62
2023/08/15 07:40:00;;;;;;;7.95;3.25;;;21.00;99.90;;;;;;5091959;28;20119;-62
2023/08/15 07:42:26;;;;;;;7.93;3.45;;;21.00;99.90;;;;;;5072461;28;20059;-62
2023/08/15 07:44:52;;;;;;;10.82;3.63;;;21.10;99.90;;;;;;5091503;28;20040;-62
2023/08/15 07:47:18;;;;;;;9.43;3.17;;;21.10;99.90;;;;;;5069831;28;20381;-61
2023/08/15 07:49:44;;;;;;;9.48;4.18;;;21.10;99.90;;;;;;5078336;28;20052;-61
2023/08/15 07:52:10;;;;;;;11.77;3.50;;;21.00;99.90;;;;;;5054569;28;20147;-62
2023/08/15 07:54:36;;;;;;;7.82;2.92;;;20.90;99.90;;;;;;5069858;28;20062;-61
2023/08/15 07:57:01;;;;;;;11.40;2.58;;;20.90;99.90;;;;;;5071023;28;20055;-61
2023/08/15 07:59:27;;;;;;;7.57;2.78;;;20.90;99.90;;;;;;5092558;28;20036;-61
2023/08/15 08:01:53;;;;;;;8.25;2.55;;;20.80;99.90;;;;;;5074206;28;20047;-61
2023/08/15 08:04:19;;;;;;;9.82;2.75;;;20.70;99.90;;;;;;5091778;28;20465;-61
2023/08/15 08:06:45;;;;;;;10.55;2.70;;;20.50;99.90;;;;;;5074436;28;20043;-61
2023/08/15 08:09:10;;;;;;;8.65;2.97;;;20.40;99.90;;;;;;5092816;28;20059;-61
2023/08/15 08:11:37;;;;;;;6.18;2.30;;;20.50;99.90;;;;;;5091820;28;20481;-61
2023/08/15 08:14:03;;;;;;;8.55;2.60;;;20.50;99.90;;;;;;5092753;28;20370;-61
2023/08/15 08:16:29;;;;;;;7.80;2.65;;;20.70;99.90;;;;;;5091640;28;20097;-60
2023/08/15 08:18:55;;;;;;;10.75;2.72;;;20.70;99.90;;;;;;5092144;28;20090;-61
2023/08/15 08:21:21;;;;;;;7.40;2.90;;;20.70;99.90;;;;;;5056528;28;20035;-61
2023/08/15 08:23:46;;;;;;;7.30;2.60;;;20.70;99.90;;;;;;5056673;28;20036;-61
2023/08/15 08:26:12;;;;;;;7.68;2.47;;;20.80;99.90;;;;;;5091361;28;20647;-61
2023/08/15 08:28:38;;;;;;;7.88;2.25;;;20.80;99.90;;;;;;5091922;28;20046;-61
2023/08/15 08:31:04;;;;;;;8.13;2.45;;;20.70;99.90;;;;;;5073694;28;20388;-61
2023/08/15 08:33:30;;;;;;;6.80;2.65;;;20.80;99.90;;;;;;5091882;28;20085;-61
2023/08/15 08:35:56;;;;;;;6.78;2.83;;;20.80;99.90;;;;;;5074282;28;20044;-61
2023/08/15 08:38:22;;;;;;;7.32;2.63;;;20.80;99.90;;;;;;5072912;28;20044;-61
2023/08/15 08:40:47;;;;;;;5.65;2.10;;;20.80;99.90;;;;;;5071569;28;20047;-60
2023/08/15 08:43:18;;;;;;;6.97;2.25;;;20.80;99.90;;;;;;5073779;28;20452;-60
2023/08/15 08:45:49;;;;;;;5.07;1.80;;;20.70;99.90;;;;;;5090711;28;20046;-61
2023/08/15 08:48:16;;;;;;;6.82;2.30;;;20.80;99.90;;;;;;5073265;28;20586;-61
2023/08/15 08:50:47;;;;;;;7.55;2.28;;;21.00;99.90;;;;;;5091735;28;20060;-61
2023/08/15 08:53:13;;;;;;;5.63;1.77;;;21.10;99.90;;;;;;5055729;28;20079;-60
2023/08/15 08:55:39;;;;;;;6.28;2.22;;;21.30;99.90;;;;;;5071830;28;20117;-60
2023/08/15 08:58:05;;;;;;;6.93;2.38;;;21.30;99.90;;;;;;5073107;28;20389;-61
2023/08/15 09:00:34;;;;;;;6.05;2.35;;;21.40;99.90;;;;;;5089596;28;20051;-61
2023/08/15 09:03:00;;;;;;;6.05;2.35;;;21.40;99.90;;;;;;5091874;28;20052;-61
2023/08/15 09:05:27;;;;;;;6.45;2.28;;;21.50;99.90;;;;;;5056352;28;20650;-60
2023/08/15 09:07:53;;;;;;;6.70;2.17;;;21.60;99.90;;;;;;5063199;28;20040;-61
2023/08/15 09:10:21;;;;;;;5.72;2.05;;;21.60;99.90;;;;;;5061895;28;20777;-60
2023/08/15 09:12:47;;;;;;;6.55;2.03;;;21.70;99.90;;;;;;5071801;28;20031;-60
2023/08/15 09:15:13;;;;;;;8.02;2.20;;;21.70;99.90;;;;;;5059125;28;20048;-60
2023/08/15 09:17:39;;;;;;;6.32;2.10;;;21.80;99.90;;;;;;5068907;28;20044;-60
2023/08/15 09:20:15;;;;;;;7.13;1.85;;;21.90;99.90;;;;;;5089423;28;20032;-61
2023/08/15 09:22:46;;;;;;;5.55;1.67;;;21.90;99.90;;;;;;5052271;28;20044;-61
2023/08/15 09:25:15;;;;;;;6.47;1.92;;;22.00;99.90;;;;;;5052359;28;20040;-61
2023/08/15 09:27:42;;;;;;;5.18;1.85;;;21.80;99.90;;;;;;5068780;28;20044;-61
2023/08/15 09:30:15;;;;;;;6.03;1.70;;;21.80;99.90;;;;;;5072739;28;20464;-61
2023/08/15 09:32:42;;;;;;;3.63;1.50;;;21.80;99.90;;;;;;5072394;28;20052;-60
2023/08/15 09:35:09;;;;;;;4.82;1.58;;;21.70;99.90;;;;;;5071464;28;20047;-61
2023/08/15 09:37:57;;;;;;;5.90;1.92;;;21.60;99.90;;;;;;5089691;28;20132;-60
2023/08/15 09:40:24;;;;;;;4.32;1.83;;;21.60;99.90;;;;;;5053893;28;20040;-61
2023/08/15 09:42:52;;;;;;;4.45;1.50;;;21.70;99.90;;;;;;5088869;28;20036;-61
2023/08/15 09:45:18;;;;;;;5.45;1.58;;;21.60;99.90;;;;;;5072282;28;20043;-61
2023/08/15 09:47:45;;;;;;;5.72;1.90;;;21.50;99.90;;;;;;5072046;28;20040;-61
2023/08/15 09:50:13;;;;;;;5.63;1.65;;;21.40;99.90;;;;;;5070709;28;20064;-61
2023/08/15 09:52:43;;;;;;;5.55;1.65;;;21.50;99.90;;;;;;5089935;28;20036;-61
2023/08/15 09:55:11;;;;;;;4.70;1.55;;;21.50;99.90;;;;;;5089942;28;20732;-61
2023/08/15 09:57:42;;;;;;;5.90;1.98;;;21.50;99.90;;;;;;5088539;28;20141;-61
2023/08/15 10:00:12;;;;;;;5.65;2.45;;;21.50;99.90;;;;;;5074704;28;20389;-61
2023/08/15 10:02:48;;;;;;;5.28;1.77;;;21.40;99.90;;;;;;5074222;28;20040;-61
2023/08/15 10:05:20;;;;;;;6.32;2.28;;;21.50;99.90;;;;;;5058079;28;20032;-60
2023/08/15 10:07:47;;;;;;;5.68;1.80;;;21.60;99.90;;;;;;5075005;28;20496;-60
2023/08/15 10:10:13;;;;;;;5.32;1.40;;;21.80;99.90;;;;;;5073923;28;20051;-60
2023/08/15 10:12:40;;;;;;;5.20;1.50;;;21.90;99.90;;;;;;5092015;28;20658;-61
2023/08/15 10:15:08;;;;;;;4.60;1.70;;;22.00;99.90;;;;;;5091762;28;20043;-60
2023/08/15 10:17:34;;;;;;;6.43;1.80;;;21.90;99.90;;;;;;5091712;28;20054;-60
2023/08/15 10:20:10;;;;;;;4.25;1.58;;;21.90;99.90;;;;;;5091262;28;20113;-60
2023/08/15 10:22:40;;;;;;;7.10;2.65;;;22.00;99.90;;;;;;5092666;28;20036;-61
2023/08/15 10:25:24;;;;;;;5.40;2.15;;;21.90;99.90;;;;;;5091776;28;20040;-61
2023/08/15 10:27:52;;;;;;;5.85;2.38;;;21.80;99.90;;;;;;5092170;28;20397;-61
2023/08/15 10:30:33;;;;;;;5.40;2.33;;;21.80;99.90;;;;;;5074133;28;20054;-61
2023/08/15 10:33:11;;;;;;;6.28;2.13;;;21.80;99.90;;;;;;5074448;28;20044;-61
2023/08/15 10:35:37;;;;;;;7.85;2.28;;;21.80;99.90;;;;;;5074031;28;20051;-61
2023/08/15 10:38:13;;;;;;;7.05;2.03;;;21.80;99.90;;;;;;5073719;28;20044;-61
2023/08/15 10:40:43;;;;;;;5.95;1.80;;;22.00;99.90;;;;;;5074363;28;20043;-61
2023/08/15 10:43:13;;;;;;;7.85;2.67;;;22.10;99.90;;;;;;5074141;28;20038;-61
2023/08/15 10:45:50;;;;;;;10.25;2.58;;;22.20;99.90;;;;;;5073111;28;20050;-61
2023/08/15 10:48:36;;;;;;;6.30;2.28;;;22.20;99.90;;;;;;5073846;28;20056;-61
2023/08/15 10:51:01;;;;;;;6.93;2.33;;;22.20;99.90;;;;;;5057407;28;20043;-62
2023/08/15 10:53:27;;;;;;;6.60;2.17;;;22.20;99.90;;;;;;5056599;28;20047;-61
2023/08/15 10:55:54;;;;;;;5.22;2.25;;;22.20;99.90;;;;;;5092369;28;20039;-61
2023/08/15 10:58:21;;;;;;;6.32;2.10;;;22.30;99.90;;;;;;5091831;28;20036;-61
2023/08/15 11:00:49;;;;;;;5.32;2.25;;;22.20;99.90;;;;;;5072900;28;20051;-61
2023/08/15 11:03:15;;;;;;;6.68;2.25;;;22.20;99.90;;;;;;5074181;28;20044;-61
2023/08/15 11:05:41;;;;;;;5.70;2.08;;;22.20;99.90;;;;;;5091105;28;20028;-62
2023/08/15 11:08:15;;;;;;;5.05;1.58;;;22.30;99.90;;;;;;5073908;28;20488;-61
2023/08/15 11:10:45;;;;;;;5.60;1.80;;;22.40;99.90;;;;;;5073691;28;20536;-62
2023/08/15 11:13:11;;;;;;;7.03;3.05;;;22.30;99.90;;;;;;5073062;28;20136;-61
2023/08/15 11:15:38;;;;;;;5.93;2.25;;;22.30;99.90;;;;;;5073627;28;20080;-61
2023/08/15 11:18:04;;;;;;;8.40;2.85;;;22.40;99.90;;;;;;5057290;28;20085;-61
2023/08/15 11:20:30;;;;;;;6.20;2.90;;;22.40;99.90;;;;;;5090849;28;20039;-61
2023/08/15 11:22:57;;;;;;;7.85;2.00;;;22.50;99.90;;;;;;5092054;28;20038;-61
2023/08/15 11:25:23;;;;;;;6.05;2.10;;;22.50;99.90;;;;;;5073970;28;20050;-61
2023/08/15 11:27:50;;;;;;;4.70;1.63;;;22.60;99.90;;;;;;5072804;28;20043;-61
2023/08/15 11:30:17;;;;;;;5.05;2.15;;;22.70;99.90;;;;;;5091875;28;20111;-61
2023/08/15 11:32:43;;;;;;;6.70;2.25;;;22.90;99.90;;;;;;5094855;28;20085;-61
2023/08/15 11:35:10;;;;;;;9.50;2.78;;;22.90;99.90;;;;;;5076929;28;20040;-61
2023/08/15 11:37:36;;;;;;;7.03;2.03;;;22.90;99.90;;;;;;5077338;28;20044;-61
2023/08/15 11:40:04;;;;;;;4.93;1.88;;;22.80;99.90;;;;;;5095805;28;20032;-61
2023/08/15 11:42:30;;;;;;;5.47;1.95;;;22.70;99.90;;;;;;5076599;28;20043;-61
2023/08/15 11:45:25;;;;;;;7.43;2.20;;;22.60;99.90;;;;;;5095522;28;20528;-62
2023/08/15 11:47:58;;;;;;;;;;;22.50;99.90;;;;;;5077641;28;20512;-61
2023/08/15 11:50:25;;;;;;;7.60;2.30;;;22.50;99.90;;;;;;5095000;28;19920;-61
2023/08/15 11:52:51;;;;;;;4.88;1.92;;;22.60;99.90;;;;;;5095422;28;20048;-62
2023/08/15 11:55:18;;;;;;;5.82;1.75;;;22.80;99.90;;;;;;5094585;28;20048;-62
2023/08/15 11:57:44;;;;;;;4.95;1.60;;;23.00;99.90;;;;;;5077158;28;20040;-61
2023/08/15 12:00:11;;;;;;;5.18;1.80;;;23.20;99.90;;;;;;5077222;28;20075;-61
2023/08/15 12:02:43;;;;;;;5.55;1.98;;;23.30;99.90;;;;;;5076197;28;20111;-62
2023/08/15 12:05:17;;;;;;;6.05;1.50;;;23.40;99.90;;;;;;5077129;28;20500;-61
2023/08/15 12:07:43;;;;;;;5.32;2.08;;;23.60;99.90;;;;;;5077200;28;20513;-61
2023/08/15 12:10:11;;;;;;;6.05;1.90;;;23.60;99.90;;;;;;5075959;28;20043;-61
2023/08/15 12:12:46;;;;;;;7.22;1.92;;;23.50;99.90;;;;;;5076531;28;20043;-62
2023/08/15 12:15:14;;;;;;;5.85;2.45;;;23.40;99.90;;;;;;5076716;28;20134;-62
2023/08/15 12:17:40;;;;;;;5.88;2.35;;;23.20;99.90;;;;;;5075729;28;20056;-61
2023/08/15 12:20:09;;;;;;;6.18;2.35;;;23.20;99.90;;;;;;5076678;28;20040;-61
2023/08/15 12:22:35;;;;;;;4.63;1.90;;;23.10;99.90;;;;;;5076915;28;20040;-61
2023/08/15 12:25:01;;;;;;;7.00;1.90;;;23.10;99.90;;;;;;5075095;28;20040;-62
2023/08/15 12:27:27;;;;;;;4.65;1.60;;;23.00;99.90;;;;;;5075251;28;20036;-65
2023/08/15 12:29:53;;;;;;;5.55;2.15;;;23.00;99.90;;;;;;5073828;28;20040;-64
2023/08/15 12:32:19;;;;;;;4.82;1.85;;;23.00;99.90;;;;;;5075626;28;20535;-64
2023/08/15 12:34:44;;;;;;;7.85;3.30;;;23.00;99.90;;;;;;5076746;28;20101;-64
2023/08/15 12:37:10;;;;;;;5.57;2.30;;;23.00;99.90;;;;;;5075300;28;20044;-64
2023/08/15 12:39:36;;;;;;;5.20;2.42;;;22.90;99.90;;;;;;5076448;28;20119;-64